Terminal Aerodrome Forecast
Issued by NWS Charleston, WV

Current Version | Previous Version | Graphics & Text | Print | Product List | Glossary On
Versions: 1 2 3 4 5 6 7 8 9 10 11 12 13 14 15 16 17 18 19 20 21 22 23 24 25
000
FTUS41 KRLX 230500
TAFEKN
TAF
KEKN 230537Z 2306/2406 31010KT P6SM SCT025 BKN035
      TEMPO 2306/2309 BKN025
     FM230900 31010KT P6SM BKN030
     FM231600 31011G20KT P6SM BKN035
     FM231700 31011G20KT P6SM SCT035
     FM231800 31011G20KT P6SM SKC
     FM232300 31006KT P6SM SKC
     FM240100 00000KT P6SM SKC=

USA.gov is the U.S. government's official web portal to all federal, state and local government web resources and services.